MSC Armonia — H8EW — position and weather

sailwx.info

Track history (hours):
 
Tides and Currents Weather Stations Pressure Air Temp Water Temp Dewpoint Dewpoint Depression Visibility Wind Speed Wind Dir Waves Ship Positions

MSC Armonia

Operator: Mediterranean Shipping Company

Last reported at 2017-Aug-22 22:28 UTC. Time now 2017-Aug-22 22:30 UTC.
Position N 38°54' E 001°27'.

Length 275 m; draft 6.8 m.

Type: Ship. MMSI: 357281000.

Date/timePositionNaut miles runAvg speedWind from/ knotsBaromVisibWave heightAir tempDewpointWater temp
2017-Aug-22 22:28N 38°54' E 001°27'0 0.0
2017-Aug-22 21:58N 38°54' E 001°27'0 0.0
2017-Aug-22 21:28N 38°54' E 001°27'0 0.0
2017-Aug-22 20:58N 38°54' E 001°27'0 0.0
2017-Aug-22 20:28N 38°54' E 001°27'0 0.0
2017-Aug-22 19:58N 38°54' E 001°27'0 0.0
2017-Aug-22 19:28N 38°54' E 001°27'0 0.0
2017-Aug-22 18:58N 38°54' E 001°27'0 0.0
2017-Aug-22 18:28N 38°54' E 001°27'0 0.0
2017-Aug-22 17:55N 38°54' E 001°27'0 0.0
2017-Aug-22 17:28N 38°54' E 001°27'0 0.0
2017-Aug-22 16:58N 38°54' E 001°27'0 0.0
2017-Aug-22 16:28N 38°54' E 001°27'0 0.0
2017-Aug-22 15:58N 38°54' E 001°27'0 0.0
2017-Aug-22 15:28N 38°54' E 001°27'0 0.0
2017-Aug-22 14:55N 38°54' E 001°27'0 0.0
2017-Aug-22 14:28N 38°54' E 001°27'0 0.0
2017-Aug-22 13:58N 38°54' E 001°27'0 0.0
2017-Aug-22 13:28N 38°54' E 001°27'0 0.0
2017-Aug-22 12:58N 38°54' E 001°27'0 0.0
2017-Aug-22 12:28N 38°54' E 001°27'0 0.0
2017-Aug-22 11:58N 38°54' E 001°27'0 0.0
2017-Aug-22 11:28N 38°54' E 001°27'0 0.0
2017-Aug-22 10:58N 38°54' E 001°27'0 0.0
2017-Aug-22 10:28N 38°54' E 001°27'0 0.0
2017-Aug-22 09:58N 38°54' E 001°27'0 0.0
2017-Aug-22 09:28N 38°54' E 001°27'0 0.0
2017-Aug-22 08:58N 38°54' E 001°27'0 0.0
2017-Aug-22 08:28N 38°54' E 001°27'0 0.0
2017-Aug-22 07:58N 38°54' E 001°27'0 0.0
2017-Aug-22 07:25N 38°54' E 001°27'0 0.0
2017-Aug-22 06:58N 38°54' E 001°27'0 0.0
2017-Aug-22 06:28N 38°54' E 001°27'0 0.5
2017-Aug-22 05:58N 38°54' E 001°27'3 7.2
2017-Aug-22 05:30N 38°54' E 001°31'510.1
2017-Aug-22 05:00N 38°57' E 001°37'510.2
2017-Aug-22 04:30N 39°00' E 001°42'5 9.9
2017-Aug-22 04:00N 39°03' E 001°48'510.0
2017-Aug-22 03:30N 39°05' E 001°53'510.1
2017-Aug-22 02:59N 39°08' E 001°59'5 9.6
2017-Aug-22 02:30N 39°11' E 002°03'4 8.0
2017-Aug-22 02:00N 39°13' E 002°08'4 8.1
2017-Aug-22 01:30N 39°15' E 002°12'4 8.1
2017-Aug-22 01:00N 39°17' E 002°17'4 8.1
2017-Aug-22 00:30N 39°20' E 002°21'4 8.5
2017-Aug-22 00:00N 39°22' E 002°26'510.4
2017-Aug-21 23:30N 39°25' E 002°31'510.3
2017-Aug-21 23:00N 39°28' E 002°36'510.4
2017-Aug-21 22:30N 39°33' E 002°39'0 0.8
2017-Aug-21 21:59N 39°33' E 002°38'0 0.0
2017-Aug-21 21:26N 39°33' E 002°38'0 0.0
2017-Aug-21 20:59N 39°33' E 002°38'0 0.0
2017-Aug-21 20:29N 39°33' E 002°38'0 0.0
2017-Aug-21 19:59N 39°33' E 002°38'0 0.0
2017-Aug-21 19:29N 39°33' E 002°38'0 0.0
2017-Aug-21 18:59N 39°33' E 002°38'0 0.0
2017-Aug-21 18:29N 39°33' E 002°38'0 0.0
2017-Aug-21 17:59N 39°33' E 002°38'0 0.0
2017-Aug-21 17:20N 39°33' E 002°38'0 0.0
2017-Aug-21 16:59N 39°33' E 002°38'0 0.0
2017-Aug-21 16:29N 39°33' E 002°38'0 0.0
2017-Aug-21 15:59N 39°33' E 002°38'0 0.0
2017-Aug-21 15:29N 39°33' E 002°38'0 0.0
2017-Aug-21 14:59N 39°33' E 002°38'0 0.0
2017-Aug-21 14:29N 39°33' E 002°38'0 0.0
2017-Aug-21 13:59N 39°33' E 002°38'0 0.0
2017-Aug-21 13:29N 39°33' E 002°38'0 0.0
2017-Aug-21 12:59N 39°33' E 002°38'0 0.0
2017-Aug-21 12:29N 39°33' E 002°38'0 0.5
2017-Aug-21 12:00N 39°33' E 002°38'3 6.8
2017-Aug-21 11:30N 39°30' E 002°37'713.4
2017-Aug-21 11:00N 39°25' E 002°31'713.8
2017-Aug-21 10:30N 39°28' E 002°23'1013.6
2017-Aug-21 09:48N 39°36' E 002°15'713.5
2017-Aug-21 09:15N 39°42' E 002°20'314.0
2017-Aug-21 09:00N 39°45' E 002°22'713.9
2017-Aug-21 08:30N 39°51' E 002°27'713.8
2017-Aug-21 08:00N 39°57' E 002°32'713.8
2017-Aug-21 07:30N 40°03' E 002°36'713.8
2017-Aug-21 07:00N 40°08' E 002°41'713.9
2017-Aug-21 06:30N 40°14' E 002°46'714.0
2017-Aug-21 06:00N 40°20' E 002°50'714.1
2017-Aug-21 05:30N 40°26' E 002°55'714.6
2017-Aug-21 05:00N 40°33' E 002°60'714.8
2017-Aug-21 04:30N 40°39' E 003°05'814.9
2017-Aug-21 04:00N 40°45' E 003°11'714.7
2017-Aug-21 03:30N 40°52' E 003°15'714.6
2017-Aug-21 03:00N 40°58' E 003°20'11415.3
2017-Aug-20 19:32N 42°36' E 004°40'016.2
2017-Aug-20 19:30N 42°36' E 004°40'815.2
2017-Aug-20 19:00N 42°43' E 004°45'815.4
2017-Aug-20 18:30N 42°49' E 004°51'815.4
2017-Aug-20 18:00N 42°56' E 004°56'815.4
2017-Aug-20 17:30N 43°02' E 005°02'815.4
2017-Aug-20 17:00N 43°09' E 005°07'815.5
2017-Aug-20 16:30N 43°16' E 005°13'7 0.7
2017-Aug-20 06:04N 43°21' E 005°20'3 7.4
2017-Aug-20 05:43N 43°20' E 005°16'513.4
2017-Aug-20 05:20N 43°15' E 005°16'7813.9
2017-Aug-19 23:46N 43°09' E 007°02'416.3
2017-Aug-19 23:30N 43°11' E 007°07'816.6
2017-Aug-19 23:00N 43°15' E 007°18'5816.2
2017-Aug-19 19:26N 43°42' E 008°28'716.2
2017-Aug-19 19:00N 43°47' E 008°34'816.2
2017-Aug-19 18:31N 43°54' E 008°41'816.0
2017-Aug-19 18:01N 43°60' E 008°48'815.7
2017-Aug-19 17:30N 44°07' E 008°53'815.7
2017-Aug-19 17:00N 44°14' E 008°56'714.8
2017-Aug-19 16:30N 44°22' E 008°57'3 6.1
2017-Aug-19 15:58N 44°25' E 008°55'0 0.0
2017-Aug-19 15:28N 44°25' E 008°55'0 0.0
2017-Aug-19 14:58N 44°25' E 008°55'0 0.0
2017-Aug-19 13:58N 44°25' E 008°55'0 0.0
2017-Aug-19 13:28N 44°25' E 008°55'0 0.0
2017-Aug-19 12:58N 44°25' E 008°55'0 0.0
2017-Aug-19 12:28N 44°25' E 008°55'0 0.0
2017-Aug-19 11:58N 44°25' E 008°55'0 0.0
2017-Aug-19 11:28N 44°25' E 008°55'0 0.0
2017-Aug-19 10:58N 44°25' E 008°55'0 0.0
2017-Aug-19 10:28N 44°25' E 008°55'0 0.0
2017-Aug-19 09:58N 44°25' E 008°55'0 0.0
2017-Aug-19 09:19N 44°25' E 008°55'0 0.0
2017-Aug-19 08:58N 44°25' E 008°55'0 0.0
2017-Aug-19 08:25N 44°25' E 008°55'0 0.0
2017-Aug-19 07:58N 44°25' E 008°55'0 0.0
2017-Aug-19 07:28N 44°25' E 008°55'0 0.0
2017-Aug-19 06:55N 44°25' E 008°55'0 0.0
2017-Aug-19 06:25N 44°25' E 008°55'0 0.0
2017-Aug-19 05:55N 44°25' E 008°55'0 0.0
2017-Aug-19 05:25N 44°25' E 008°55'0 0.2
2017-Aug-19 04:59N 44°25' E 008°55'1 2.6
2017-Aug-19 04:30N 44°24' E 008°56'3 6.8
2017-Aug-19 04:00N 44°21' E 008°59'5 9.3
2017-Aug-19 03:30N 44°16' E 009°01'510.1
2017-Aug-19 03:00N 44°12' E 009°03'5 9.9
2017-Aug-19 02:30N 44°07' E 009°05'5 9.9
2017-Aug-19 02:00N 44°02' E 009°07'5 9.6
2017-Aug-19 01:30N 43°58' E 009°09'5 9.5
2017-Aug-19 01:00N 43°53' E 009°12'5 9.6
2017-Aug-19 00:30N 43°49' E 009°14'5 9.8
2017-Aug-19 00:00N 43°44' E 009°16'5 9.7
2017-Aug-18 23:30N 43°39' E 009°18'5 9.6
2017-Aug-18 23:00N 43°35' E 009°20'5 9.8
2017-Aug-18 22:30N 43°31' E 009°24'510.1
2017-Aug-18 22:00N 43°27' E 009°29'510.1
2017-Aug-18 21:30N 43°23' E 009°33'510.0
2017-Aug-18 21:00N 43°20' E 009°38'5 9.8
2017-Aug-18 20:30N 43°17' E 009°43'5 9.9
2017-Aug-18 20:00N 43°17' E 009°50'5 9.8
2017-Aug-18 19:30N 43°17' E 009°57'5 9.2
2017-Aug-18 19:00N 43°19' E 010°02'510.2
2017-Aug-18 18:30N 43°23' E 010°06'510.3
2017-Aug-18 18:00N 43°28' E 010°10'510.7
2017-Aug-18 17:30N 43°32' E 010°15'3 5.6
2017-Aug-18 17:00N 43°33' E 010°18'0 0.0
2017-Aug-18 16:28N 43°33' E 010°18'0 0.0
2017-Aug-18 15:58N 43°33' E 010°18'0 0.0
2017-Aug-18 15:28N 43°33' E 010°18'0 0.0
2017-Aug-18 14:58N 43°33' E 010°18'0 0.0
2017-Aug-18 14:28N 43°33' E 010°18'0 0.0
2017-Aug-18 13:28N 43°33' E 010°18'0 0.0
2017-Aug-18 12:58N 43°33' E 010°18'0 0.0
2017-Aug-18 12:28N 43°33' E 010°18'0 0.0
2017-Aug-18 11:55N 43°33' E 010°18'0 0.0
2017-Aug-18 11:25N 43°33' E 010°18'0 0.0
2017-Aug-18 10:58N 43°33' E 010°18'0 0.0
2017-Aug-18 10:22N 43°33' E 010°18'0 0.0
2017-Aug-18 09:58N 43°33' E 010°18'0 0.0
2017-Aug-18 09:28N 43°33' E 010°18'0 0.0
2017-Aug-18 08:55N 43°33' E 010°18'0 0.0
2017-Aug-18 08:28N 43°33' E 010°18'0 0.0
2017-Aug-18 07:55N 43°33' E 010°18'0 0.0
2017-Aug-18 07:28N 43°33' E 010°18'0 0.0
2017-Aug-18 06:55N 43°33' E 010°18'0 0.0
2017-Aug-18 06:28N 43°33' E 010°18'0 0.0
2017-Aug-18 05:58N 43°33' E 010°18'0 0.0
2017-Aug-18 05:28N 43°33' E 010°18'0 0.9
2017-Aug-18 05:00N 43°33' E 010°18'4 8.8
2017-Aug-18 04:30N 43°30' E 010°13'611.8
2017-Aug-18 04:00N 43°24' E 010°11'612.5
2017-Aug-18 03:30N 43°18' E 010°09'612.6
2017-Aug-18 03:00N 43°12' E 010°06'712.9
2017-Aug-18 02:26N 43°05' E 010°03'613.7
2017-Aug-18 02:00N 42°60' E 009°60'713.8
2017-Aug-18 01:30N 42°53' E 009°57'2414.0
2017-Aug-17 23:48N 42°30' E 009°53'413.9
2017-Aug-17 23:30N 42°25' E 009°53'95 4.1
2017-Aug-17 00:29N 41°14' E 008°29'816.4
2017-Aug-17 00:00N 41°13' E 008°19'1318.2
2017-Aug-16 23:18N 41°07' E 008°04'517.9
2017-Aug-16 23:00N 41°05' E 007°57'918.1
2017-Aug-16 22:30N 41°01' E 007°47'917.8
2017-Aug-16 22:00N 40°57' E 007°37'2617.5
2017-Aug-16 20:31N 40°44' E 007°06'117.4
2017-Aug-16 20:27N 40°44' E 007°05'817.6
2017-Aug-16 20:01N 40°40' E 006°56'917.7
2017-Aug-16 19:31N 40°35' E 006°46'917.7
2017-Aug-16 19:01N 40°32' E 006°35'917.7
2017-Aug-16 18:31N 40°28' E 006°25'917.7
2017-Aug-16 18:01N 40°24' E 006°15'917.8
2017-Aug-16 17:31N 40°19' E 006°04'8717.8
2017-Aug-16 12:38N 39°39' E 004°24'917.4
2017-Aug-16 12:07N 39°35' E 004°14'2317.4
2017-Aug-16 10:47N 39°24' E 003°47'517.4
2017-Aug-16 10:30N 39°21' E 003°42'917.4
2017-Aug-16 10:00N 39°17' E 003°32'917.4
2017-Aug-16 09:30N 39°13' E 003°22'917.3
2017-Aug-16 09:00N 39°09' E 003°12'917.2
2017-Aug-16 08:30N 39°05' E 003°02'816.9
2017-Aug-16 08:01N 39°03' E 002°52'916.9
2017-Aug-16 07:30N 39°02' E 002°41'816.7
2017-Aug-16 07:00N 39°01' E 002°30'816.8
2017-Aug-16 06:30N 38°59' E 002°20'917.3
2017-Aug-16 06:00N 38°58' E 002°08'917.2
2017-Aug-16 05:30N 38°57' E 001°58'917.4
2017-Aug-16 05:00N 38°55' E 001°47'917.3
2017-Aug-16 04:30N 38°54' E 001°36'713.7
2017-Aug-16 04:00N 38°54' E 001°27'0 0.6
2017-Aug-16 03:28N 38°54' E 001°27'0 0.0
2017-Aug-16 02:58N 38°54' E 001°27'0 0.0
2017-Aug-16 02:28N 38°54' E 001°27'0 0.0
2017-Aug-16 01:58N 38°54' E 001°27'0 0.0
2017-Aug-16 01:28N 38°54' E 001°27'0 0.0
2017-Aug-16 00:58N 38°54' E 001°27'0 0.0
2017-Aug-16 00:28N 38°54' E 001°27'0 0.0
2017-Aug-15 23:58N 38°54' E 001°27'0 0.0
2017-Aug-15 23:28N 38°54' E 001°27'0 0.0
2017-Aug-15 22:58N 38°54' E 001°27'0 0.0
2017-Aug-15 22:28N 38°54' E 001°27'0 0.0
2017-Aug-15 21:58N 38°54' E 001°27'0 0.0
2017-Aug-15 21:28N 38°54' E 001°27'0 0.0
2017-Aug-15 20:58N 38°54' E 001°27'0 0.0
2017-Aug-15 20:28N 38°54' E 001°27'0 0.0
2017-Aug-15 19:58N 38°54' E 001°27'0 0.0
2017-Aug-15 19:28N 38°54' E 001°27'0 0.0
2017-Aug-15 18:58N 38°54' E 001°27'0 0.0
2017-Aug-15 18:28N 38°54' E 001°27'0 0.0
2017-Aug-15 17:58N 38°54' E 001°27'0 0.0
2017-Aug-15 17:28N 38°54' E 001°27'0 0.0
2017-Aug-15 16:58N 38°54' E 001°27'0 0.0
2017-Aug-15 16:28N 38°54' E 001°27'0 0.0
2017-Aug-15 15:55N 38°54' E 001°27'0 0.0
2017-Aug-15 15:28N 38°54' E 001°27'0 0.0
2017-Aug-15 14:58N 38°54' E 001°27'0 0.0
2017-Aug-15 14:22N 38°54' E 001°27'0 0.0
2017-Aug-15 13:58N 38°54' E 001°27'0 0.0
2017-Aug-15 13:28N 38°54' E 001°27'0 0.0
2017-Aug-15 12:58N 38°54' E 001°27'0 0.0
2017-Aug-15 12:28N 38°54' E 001°27'0 0.0
2017-Aug-15 11:58N 38°54' E 001°27'0 0.0
2017-Aug-15 11:28N 38°54' E 001°27'0 0.0
2017-Aug-15 10:58N 38°54' E 001°27'0 0.0
2017-Aug-15 10:28N 38°54' E 001°27'0 0.0
2017-Aug-15 09:58N 38°54' E 001°27'0 0.0
2017-Aug-15 09:28N 38°54' E 001°27'0 0.0
2017-Aug-15 08:58N 38°54' E 001°27'0 0.0
2017-Aug-15 08:28N 38°54' E 001°27'0 0.0
2017-Aug-15 07:58N 38°54' E 001°27'0 0.0
2017-Aug-15 07:22N 38°54' E 001°27'0 0.0
2017-Aug-15 06:58N 38°54' E 001°27'0 0.0
2017-Aug-15 06:28N 38°54' E 001°27'0 0.6
2017-Aug-15 05:59N 38°54' E 001°27'1 2.9
2017-Aug-15 05:29N 38°54' E 001°29'5 9.5
2017-Aug-15 05:00N 38°56' E 001°34'1010.6
2017-Aug-15 04:03N 39°02' E 001°45'111.1
2017-Aug-15 04:00N 39°02' E 001°45'711.2
2017-Aug-15 03:25N 39°06' E 001°52'511.1
2017-Aug-15 03:00N 39°08' E 001°57'510.1
2017-Aug-15 02:30N 39°11' E 002°03'5 9.6
2017-Aug-15 02:00N 39°13' E 002°08'5 9.7
2017-Aug-15 01:30N 39°16' E 002°13'510.7
2017-Aug-15 01:00N 39°19' E 002°19'611.2
2017-Aug-15 00:30N 39°22' E 002°25'611.4
2017-Aug-15 00:00N 39°25' E 002°31'611.4
2017-Aug-14 23:30N 39°29' E 002°36'4 8.7
2017-Aug-14 23:00N 39°33' E 002°38'0 0.2
2017-Aug-14 22:30N 39°33' E 002°38'0 0.0
2017-Aug-14 22:00N 39°33' E 002°38'0 0.0
2017-Aug-14 21:30N 39°33' E 002°38'0 0.0
2017-Aug-14 21:00N 39°33' E 002°38'0 0.0
2017-Aug-14 20:30N 39°33' E 002°38'0 0.0
2017-Aug-14 20:00N 39°33' E 002°38'0 0.0
2017-Aug-14 19:30N 39°33' E 002°38'0 0.0
2017-Aug-14 19:00N 39°33' E 002°38'0 0.0
2017-Aug-14 18:30N 39°33' E 002°38'0 0.0
2017-Aug-14 18:00N 39°33' E 002°38'0 0.0
2017-Aug-14 17:30N 39°33' E 002°38'0 0.0
2017-Aug-14 17:00N 39°33' E 002°38'0 0.0
2017-Aug-14 16:27N 39°33' E 002°38'0 0.0
2017-Aug-14 16:00N 39°33' E 002°38'0 0.0
2017-Aug-14 15:30N 39°33' E 002°38'0 0.0
2017-Aug-14 15:00N 39°33' E 002°38'0 0.0
2017-Aug-14 14:30N 39°33' E 002°38'0 0.0
2017-Aug-14 14:00N 39°33' E 002°38'0 0.0
2017-Aug-14 13:30N 39°33' E 002°38'0 0.0
2017-Aug-14 13:00N 39°33' E 002°38'0 0.0
2017-Aug-14 12:30N 39°33' E 002°38'0 0.1
2017-Aug-14 12:00N 39°33' E 002°38'3 6.5
2017-Aug-14 11:30N 39°30' E 002°37'713.7
2017-Aug-14 11:00N 39°26' E 002°31'611.8
2017-Aug-14 10:30N 39°27' E 002°23'812.2
2017-Aug-14 09:52N 39°33' E 002°16'411.2
2017-Aug-14 09:30N 39°37' E 002°16'713.7
2017-Aug-14 08:58N 39°43' E 002°21'715.2
2017-Aug-14 08:30N 39°49' E 002°26'815.6
2017-Aug-14 08:00N 39°56' E 002°31'815.4
2017-Aug-14 07:30N 40°02' E 002°36'815.3
2017-Aug-14 07:00N 40°09' E 002°41'815.3
2017-Aug-14 06:30N 40°16' E 002°46'715.0
2017-Aug-14 06:00N 40°22' E 002°52'714.9
2017-Aug-14 05:30N 40°28' E 002°57'714.8
2017-Aug-14 05:00N 40°34' E 003°02'814.9
2017-Aug-14 04:30N 40°41' E 003°07'715.2
2017-Aug-14 04:00N 40°48' E 003°12'815.0
2017-Aug-14 03:30N 40°54' E 003°16'714.8
2017-Aug-14 03:00N 41°00' E 003°22'5215.3
2017-Aug-13 23:34N 41°45' E 003°58'115.7
2017-Aug-13 23:30N 41°46' E 003°59'1115.0
2017-Aug-13 22:45N 41°56' E 004°06'415.3
2017-Aug-13 22:30N 41°59' E 004°09'1015.4
2017-Aug-13 21:51N 42°07' E 004°17'615.4
2017-Aug-13 21:29N 42°12' E 004°20'815.5
2017-Aug-13 20:58N 42°19' E 004°26'715.7
2017-Aug-13 20:30N 42°25' E 004°31'816.0
2017-Aug-13 20:00N 42°32' E 004°37'816.0
2017-Aug-13 19:30N 42°39' E 004°42'816.3
2017-Aug-13 19:00N 42°46' E 004°48'816.1
2017-Aug-13 18:30N 42°53' E 004°54'816.0
2017-Aug-13 18:00N 42°60' E 004°60'816.0
2017-Aug-13 17:30N 43°06' E 005°06'816.4
2017-Aug-13 17:01N 43°13' E 005°11'814.9
2017-Aug-13 16:30N 43°20' E 005°17'2 0.2
2017-Aug-13 05:54N 43°21' E 005°19'3 6.8
2017-Aug-13 05:29N 43°19' E 005°17'7513.0
2017-Aug-12 23:42N 43°11' E 006°60'316.5
2017-Aug-12 23:30N 43°12' E 007°03'816.3
2017-Aug-12 23:00N 43°17' E 007°13'  
Track history (hours):
 
Tides and Currents Weather Stations Pressure Air Temp Water Temp Dewpoint Dewpoint Depression Visibility Wind Speed Wind Dir Waves Ship Positions

MSC Armonia

Operator: Mediterranean Shipping Company

Last reported at 2017-Aug-22 22:28 UTC. Time now 2017-Aug-22 22:30 UTC.
Position N 38°54' E 001°27'.

Length 275 m; draft 6.8 m.

Type: Ship. MMSI: 357281000.

Date/timePositionNaut miles runAvg speedWind from/ knotsBaromVisibWave heightAir tempDewpointWater temp
2017-Aug-22 22:28N 38°54' E 001°27'0 0.0
2017-Aug-22 21:58N 38°54' E 001°27'0 0.0
2017-Aug-22 21:28N 38°54' E 001°27'0 0.0
2017-Aug-22 20:58N 38°54' E 001°27'0 0.0
2017-Aug-22 20:28N 38°54' E 001°27'0 0.0
2017-Aug-22 19:58N 38°54' E 001°27'0 0.0
2017-Aug-22 19:28N 38°54' E 001°27'0 0.0
2017-Aug-22 18:58N 38°54' E 001°27'0 0.0
2017-Aug-22 18:28N 38°54' E 001°27'0 0.0
2017-Aug-22 17:55N 38°54' E 001°27'0 0.0
2017-Aug-22 17:28N 38°54' E 001°27'0 0.0
2017-Aug-22 16:58N 38°54' E 001°27'0 0.0
2017-Aug-22 16:28N 38°54' E 001°27'0 0.0
2017-Aug-22 15:58N 38°54' E 001°27'0 0.0
2017-Aug-22 15:28N 38°54' E 001°27'0 0.0
2017-Aug-22 14:55N 38°54' E 001°27'0 0.0
2017-Aug-22 14:28N 38°54' E 001°27'0 0.0
2017-Aug-22 13:58N 38°54' E 001°27'0 0.0
2017-Aug-22 13:28N 38°54' E 001°27'0 0.0
2017-Aug-22 12:58N 38°54' E 001°27'0 0.0
2017-Aug-22 12:28N 38°54' E 001°27'0 0.0
2017-Aug-22 11:58N 38°54' E 001°27'0 0.0
2017-Aug-22 11:28N 38°54' E 001°27'0 0.0
2017-Aug-22 10:58N 38°54' E 001°27'0 0.0
2017-Aug-22 10:28N 38°54' E 001°27'0 0.0
2017-Aug-22 09:58N 38°54' E 001°27'0 0.0
2017-Aug-22 09:28N 38°54' E 001°27'0 0.0
2017-Aug-22 08:58N 38°54' E 001°27'0 0.0
2017-Aug-22 08:28N 38°54' E 001°27'0 0.0
2017-Aug-22 07:58N 38°54' E 001°27'0 0.0
2017-Aug-22 07:25N 38°54' E 001°27'0 0.0
2017-Aug-22 06:58N 38°54' E 001°27'0 0.0
2017-Aug-22 06:28N 38°54' E 001°27'0 0.5
2017-Aug-22 05:58N 38°54' E 001°27'3 7.2
2017-Aug-22 05:30N 38°54' E 001°31'510.1
2017-Aug-22 05:00N 38°57' E 001°37'510.2
2017-Aug-22 04:30N 39°00' E 001°42'5 9.9
2017-Aug-22 04:00N 39°03' E 001°48'510.0
2017-Aug-22 03:30N 39°05' E 001°53'510.1
2017-Aug-22 02:59N 39°08' E 001°59'5 9.6
2017-Aug-22 02:30N 39°11' E 002°03'4 8.0
2017-Aug-22 02:00N 39°13' E 002°08'4 8.1
2017-Aug-22 01:30N 39°15' E 002°12'4 8.1
2017-Aug-22 01:00N 39°17' E 002°17'4 8.1
2017-Aug-22 00:30N 39°20' E 002°21'4 8.5
2017-Aug-22 00:00N 39°22' E 002°26'510.4
2017-Aug-21 23:30N 39°25' E 002°31'510.3
2017-Aug-21 23:00N 39°28' E 002°36'510.4
2017-Aug-21 22:30N 39°33' E 002°39'0 0.8
2017-Aug-21 21:59N 39°33' E 002°38'0 0.0
2017-Aug-21 21:26N 39°33' E 002°38'0 0.0
2017-Aug-21 20:59N 39°33' E 002°38'0 0.0
2017-Aug-21 20:29N 39°33' E 002°38'0 0.0
2017-Aug-21 19:59N 39°33' E 002°38'0 0.0
2017-Aug-21 19:29N 39°33' E 002°38'0 0.0
2017-Aug-21 18:59N 39°33' E 002°38'0 0.0
2017-Aug-21 18:29N 39°33' E 002°38'0 0.0
2017-Aug-21 17:59N 39°33' E 002°38'0 0.0
2017-Aug-21 17:20N 39°33' E 002°38'0 0.0
2017-Aug-21 16:59N 39°33' E 002°38'0 0.0
2017-Aug-21 16:29N 39°33' E 002°38'0 0.0
2017-Aug-21 15:59N 39°33' E 002°38'0 0.0
2017-Aug-21 15:29N 39°33' E 002°38'0 0.0
2017-Aug-21 14:59N 39°33' E 002°38'0 0.0
2017-Aug-21 14:29N 39°33' E 002°38'0 0.0
2017-Aug-21 13:59N 39°33' E 002°38'0 0.0
2017-Aug-21 13:29N 39°33' E 002°38'0 0.0
2017-Aug-21 12:59N 39°33' E 002°38'0 0.0
2017-Aug-21 12:29N 39°33' E 002°38'0 0.5
2017-Aug-21 12:00N 39°33' E 002°38'3 6.8
2017-Aug-21 11:30N 39°30' E 002°37'713.4
2017-Aug-21 11:00N 39°25' E 002°31'713.8
2017-Aug-21 10:30N 39°28' E 002°23'1013.6
2017-Aug-21 09:48N 39°36' E 002°15'713.5
2017-Aug-21 09:15N 39°42' E 002°20'314.0
2017-Aug-21 09:00N 39°45' E 002°22'713.9
2017-Aug-21 08:30N 39°51' E 002°27'713.8
2017-Aug-21 08:00N 39°57' E 002°32'713.8
2017-Aug-21 07:30N 40°03' E 002°36'713.8
2017-Aug-21 07:00N 40°08' E 002°41'713.9
2017-Aug-21 06:30N 40°14' E 002°46'714.0
2017-Aug-21 06:00N 40°20' E 002°50'714.1
2017-Aug-21 05:30N 40°26' E 002°55'714.6
2017-Aug-21 05:00N 40°33' E 002°60'714.8
2017-Aug-21 04:30N 40°39' E 003°05'814.9
2017-Aug-21 04:00N 40°45' E 003°11'714.7
2017-Aug-21 03:30N 40°52' E 003°15'714.6
2017-Aug-21 03:00N 40°58' E 003°20'11415.3
2017-Aug-20 19:32N 42°36' E 004°40'016.2
2017-Aug-20 19:30N 42°36' E 004°40'815.2
2017-Aug-20 19:00N 42°43' E 004°45'815.4
2017-Aug-20 18:30N 42°49' E 004°51'815.4
2017-Aug-20 18:00N 42°56' E 004°56'815.4
2017-Aug-20 17:30N 43°02' E 005°02'815.4
2017-Aug-20 17:00N 43°09' E 005°07'815.5
2017-Aug-20 16:30N 43°16' E 005°13'7 0.7
2017-Aug-20 06:04N 43°21' E 005°20'3 7.4
2017-Aug-20 05:43N 43°20' E 005°16'513.4
2017-Aug-20 05:20N 43°15' E 005°16'7813.9
2017-Aug-19 23:46N 43°09' E 007°02'416.3
2017-Aug-19 23:30N 43°11' E 007°07'816.6
2017-Aug-19 23:00N 43°15' E 007°18'5816.2
2017-Aug-19 19:26N 43°42' E 008°28'716.2
2017-Aug-19 19:00N 43°47' E 008°34'816.2
2017-Aug-19 18:31N 43°54' E 008°41'816.0
2017-Aug-19 18:01N 43°60' E 008°48'815.7
2017-Aug-19 17:30N 44°07' E 008°53'815.7
2017-Aug-19 17:00N 44°14' E 008°56'714.8
2017-Aug-19 16:30N 44°22' E 008°57'3 6.1
2017-Aug-19 15:58N 44°25' E 008°55'0 0.0
2017-Aug-19 15:28N 44°25' E 008°55'0 0.0
2017-Aug-19 14:58N 44°25' E 008°55'0 0.0
2017-Aug-19 13:58N 44°25' E 008°55'0 0.0
2017-Aug-19 13:28N 44°25' E 008°55'0 0.0
2017-Aug-19 12:58N 44°25' E 008°55'0 0.0
2017-Aug-19 12:28N 44°25' E 008°55'0 0.0
2017-Aug-19 11:58N 44°25' E 008°55'0 0.0
2017-Aug-19 11:28N 44°25' E 008°55'0 0.0
2017-Aug-19 10:58N 44°25' E 008°55'0 0.0
2017-Aug-19 10:28N 44°25' E 008°55'0 0.0
2017-Aug-19 09:58N 44°25' E 008°55'0 0.0
2017-Aug-19 09:19N 44°25' E 008°55'0 0.0
2017-Aug-19 08:58N 44°25' E 008°55'0 0.0
2017-Aug-19 08:25N 44°25' E 008°55'0 0.0
2017-Aug-19 07:58N 44°25' E 008°55'0 0.0
2017-Aug-19 07:28N 44°25' E 008°55'0 0.0
2017-Aug-19 06:55N 44°25' E 008°55'0 0.0
2017-Aug-19 06:25N 44°25' E 008°55'0 0.0
2017-Aug-19 05:55N 44°25' E 008°55'0 0.0
2017-Aug-19 05:25N 44°25' E 008°55'0 0.2
2017-Aug-19 04:59N 44°25' E 008°55'1 2.6
2017-Aug-19 04:30N 44°24' E 008°56'3 6.8
2017-Aug-19 04:00N 44°21' E 008°59'5 9.3
2017-Aug-19 03:30N 44°16' E 009°01'510.1
2017-Aug-19 03:00N 44°12' E 009°03'5 9.9
2017-Aug-19 02:30N 44°07' E 009°05'5 9.9
2017-Aug-19 02:00N 44°02' E 009°07'5 9.6
2017-Aug-19 01:30N 43°58' E 009°09'5 9.5
2017-Aug-19 01:00N 43°53' E 009°12'5 9.6
2017-Aug-19 00:30N 43°49' E 009°14'5 9.8
2017-Aug-19 00:00N 43°44' E 009°16'5 9.7
2017-Aug-18 23:30N 43°39' E 009°18'5 9.6
2017-Aug-18 23:00N 43°35' E 009°20'5 9.8
2017-Aug-18 22:30N 43°31' E 009°24'510.1
2017-Aug-18 22:00N 43°27' E 009°29'510.1
2017-Aug-18 21:30N 43°23' E 009°33'510.0
2017-Aug-18 21:00N 43°20' E 009°38'5 9.8
2017-Aug-18 20:30N 43°17' E 009°43'5 9.9
2017-Aug-18 20:00N 43°17' E 009°50'5 9.8
2017-Aug-18 19:30N 43°17' E 009°57'5 9.2
2017-Aug-18 19:00N 43°19' E 010°02'510.2
2017-Aug-18 18:30N 43°23' E 010°06'510.3
2017-Aug-18 18:00N 43°28' E 010°10'510.7
2017-Aug-18 17:30N 43°32' E 010°15'3 5.6
2017-Aug-18 17:00N 43°33' E 010°18'0 0.0
2017-Aug-18 16:28N 43°33' E 010°18'0 0.0
2017-Aug-18 15:58N 43°33' E 010°18'0 0.0
2017-Aug-18 15:28N 43°33' E 010°18'0 0.0
2017-Aug-18 14:58N 43°33' E 010°18'0 0.0
2017-Aug-18 14:28N 43°33' E 010°18'0 0.0
2017-Aug-18 13:28N 43°33' E 010°18'0 0.0
2017-Aug-18 12:58N 43°33' E 010°18'0 0.0
2017-Aug-18 12:28N 43°33' E 010°18'0 0.0
2017-Aug-18 11:55N 43°33' E 010°18'0 0.0
2017-Aug-18 11:25N 43°33' E 010°18'0 0.0
2017-Aug-18 10:58N 43°33' E 010°18'0 0.0
2017-Aug-18 10:22N 43°33' E 010°18'0 0.0
2017-Aug-18 09:58N 43°33' E 010°18'0 0.0
2017-Aug-18 09:28N 43°33' E 010°18'0 0.0
2017-Aug-18 08:55N 43°33' E 010°18'0 0.0
2017-Aug-18 08:28N 43°33' E 010°18'0 0.0
2017-Aug-18 07:55N 43°33' E 010°18'0 0.0
2017-Aug-18 07:28N 43°33' E 010°18'0 0.0
2017-Aug-18 06:55N 43°33' E 010°18'0 0.0
2017-Aug-18 06:28N 43°33' E 010°18'0 0.0
2017-Aug-18 05:58N 43°33' E 010°18'0 0.0
2017-Aug-18 05:28N 43°33' E 010°18'0 0.9
2017-Aug-18 05:00N 43°33' E 010°18'4 8.8
2017-Aug-18 04:30N 43°30' E 010°13'611.8
2017-Aug-18 04:00N 43°24' E 010°11'612.5
2017-Aug-18 03:30N 43°18' E 010°09'612.6
2017-Aug-18 03:00N 43°12' E 010°06'712.9
2017-Aug-18 02:26N 43°05' E 010°03'613.7
2017-Aug-18 02:00N 42°60' E 009°60'713.8
2017-Aug-18 01:30N 42°53' E 009°57'2414.0
2017-Aug-17 23:48N 42°30' E 009°53'413.9
2017-Aug-17 23:30N 42°25' E 009°53'95 4.1
2017-Aug-17 00:29N 41°14' E 008°29'816.4
2017-Aug-17 00:00N 41°13' E 008°19'1318.2
2017-Aug-16 23:18N 41°07' E 008°04'517.9
2017-Aug-16 23:00N 41°05' E 007°57'918.1
2017-Aug-16 22:30N 41°01' E 007°47'917.8
2017-Aug-16 22:00N 40°57' E 007°37'2617.5
2017-Aug-16 20:31N 40°44' E 007°06'117.4
2017-Aug-16 20:27N 40°44' E 007°05'817.6
2017-Aug-16 20:01N 40°40' E 006°56'917.7
2017-Aug-16 19:31N 40°35' E 006°46'917.7
2017-Aug-16 19:01N 40°32' E 006°35'917.7
2017-Aug-16 18:31N 40°28' E 006°25'917.7
2017-Aug-16 18:01N 40°24' E 006°15'917.8
2017-Aug-16 17:31N 40°19' E 006°04'8717.8
2017-Aug-16 12:38N 39°39' E 004°24'917.4
2017-Aug-16 12:07N 39°35' E 004°14'2317.4
2017-Aug-16 10:47N 39°24' E 003°47'517.4
2017-Aug-16 10:30N 39°21' E 003°42'917.4
2017-Aug-16 10:00N 39°17' E 003°32'917.4
2017-Aug-16 09:30N 39°13' E 003°22'917.3
2017-Aug-16 09:00N 39°09' E 003°12'917.2
2017-Aug-16 08:30N 39°05' E 003°02'816.9
2017-Aug-16 08:01N 39°03' E 002°52'916.9
2017-Aug-16 07:30N 39°02' E 002°41'816.7
2017-Aug-16 07:00N 39°01' E 002°30'816.8
2017-Aug-16 06:30N 38°59' E 002°20'917.3
2017-Aug-16 06:00N 38°58' E 002°08'917.2
2017-Aug-16 05:30N 38°57' E 001°58'917.4
2017-Aug-16 05:00N 38°55' E 001°47'917.3
2017-Aug-16 04:30N 38°54' E 001°36'713.7
2017-Aug-16 04:00N 38°54' E 001°27'0 0.6
2017-Aug-16 03:28N 38°54' E 001°27'0 0.0
2017-Aug-16 02:58N 38°54' E 001°27'0 0.0
2017-Aug-16 02:28N 38°54' E 001°27'0 0.0
2017-Aug-16 01:58N 38°54' E 001°27'0 0.0
2017-Aug-16 01:28N 38°54' E 001°27'0 0.0
2017-Aug-16 00:58N 38°54' E 001°27'0 0.0
2017-Aug-16 00:28N 38°54' E 001°27'0 0.0
2017-Aug-15 23:58N 38°54' E 001°27'0 0.0
2017-Aug-15 23:28N 38°54' E 001°27'0 0.0
2017-Aug-15 22:58N 38°54' E 001°27'0 0.0
2017-Aug-15 22:28N 38°54' E 001°27'0 0.0
2017-Aug-15 21:58N 38°54' E 001°27'0 0.0
2017-Aug-15 21:28N 38°54' E 001°27'0 0.0
2017-Aug-15 20:58N 38°54' E 001°27'0 0.0
2017-Aug-15 20:28N 38°54' E 001°27'0 0.0
2017-Aug-15 19:58N 38°54' E 001°27'0 0.0
2017-Aug-15 19:28N 38°54' E 001°27'0 0.0
2017-Aug-15 18:58N 38°54' E 001°27'0 0.0
2017-Aug-15 18:28N 38°54' E 001°27'0 0.0
2017-Aug-15 17:58N 38°54' E 001°27'0 0.0
2017-Aug-15 17:28N 38°54' E 001°27'0 0.0
2017-Aug-15 16:58N 38°54' E 001°27'0 0.0
2017-Aug-15 16:28N 38°54' E 001°27'0 0.0
2017-Aug-15 15:55N 38°54' E 001°27'0 0.0
2017-Aug-15 15:28N 38°54' E 001°27'0 0.0
2017-Aug-15 14:58N 38°54' E 001°27'0 0.0
2017-Aug-15 14:22N 38°54' E 001°27'0 0.0
2017-Aug-15 13:58N 38°54' E 001°27'0 0.0
2017-Aug-15 13:28N 38°54' E 001°27'0 0.0
2017-Aug-15 12:58N 38°54' E 001°27'0 0.0
2017-Aug-15 12:28N 38°54' E 001°27'0 0.0
2017-Aug-15 11:58N 38°54' E 001°27'0 0.0
2017-Aug-15 11:28N 38°54' E 001°27'0 0.0
2017-Aug-15 10:58N 38°54' E 001°27'0 0.0
2017-Aug-15 10:28N 38°54' E 001°27'0 0.0
2017-Aug-15 09:58N 38°54' E 001°27'0 0.0
2017-Aug-15 09:28N 38°54' E 001°27'0 0.0
2017-Aug-15 08:58N 38°54' E 001°27'0 0.0
2017-Aug-15 08:28N 38°54' E 001°27'0 0.0
2017-Aug-15 07:58N 38°54' E 001°27'0 0.0
2017-Aug-15 07:22N 38°54' E 001°27'0 0.0
2017-Aug-15 06:58N 38°54' E 001°27'0 0.0
2017-Aug-15 06:28N 38°54' E 001°27'0 0.6
2017-Aug-15 05:59N 38°54' E 001°27'1 2.9
2017-Aug-15 05:29N 38°54' E 001°29'5 9.5
2017-Aug-15 05:00N 38°56' E 001°34'1010.6
2017-Aug-15 04:03N 39°02' E 001°45'111.1
2017-Aug-15 04:00N 39°02' E 001°45'711.2
2017-Aug-15 03:25N 39°06' E 001°52'511.1
2017-Aug-15 03:00N 39°08' E 001°57'510.1
2017-Aug-15 02:30N 39°11' E 002°03'5 9.6
2017-Aug-15 02:00N 39°13' E 002°08'5 9.7
2017-Aug-15 01:30N 39°16' E 002°13'510.7
2017-Aug-15 01:00N 39°19' E 002°19'611.2
2017-Aug-15 00:30N 39°22' E 002°25'611.4
2017-Aug-15 00:00N 39°25' E 002°31'611.4
2017-Aug-14 23:30N 39°29' E 002°36'4 8.7
2017-Aug-14 23:00N 39°33' E 002°38'0 0.2
2017-Aug-14 22:30N 39°33' E 002°38'0 0.0
2017-Aug-14 22:00N 39°33' E 002°38'0 0.0
2017-Aug-14 21:30N 39°33' E 002°38'0 0.0
2017-Aug-14 21:00N 39°33' E 002°38'0 0.0
2017-Aug-14 20:30N 39°33' E 002°38'0 0.0
2017-Aug-14 20:00N 39°33' E 002°38'0 0.0
2017-Aug-14 19:30N 39°33' E 002°38'0 0.0
2017-Aug-14 19:00N 39°33' E 002°38'0 0.0
2017-Aug-14 18:30N 39°33' E 002°38'0 0.0
2017-Aug-14 18:00N 39°33' E 002°38'0 0.0
2017-Aug-14 17:30N 39°33' E 002°38'0 0.0
2017-Aug-14 17:00N 39°33' E 002°38'0 0.0
2017-Aug-14 16:27N 39°33' E 002°38'0 0.0
2017-Aug-14 16:00N 39°33' E 002°38'0 0.0
2017-Aug-14 15:30N 39°33' E 002°38'0 0.0
2017-Aug-14 15:00N 39°33' E 002°38'0 0.0
2017-Aug-14 14:30N 39°33' E 002°38'0 0.0
2017-Aug-14 14:00N 39°33' E 002°38'0 0.0
2017-Aug-14 13:30N 39°33' E 002°38'0 0.0
2017-Aug-14 13:00N 39°33' E 002°38'0 0.0
2017-Aug-14 12:30N 39°33' E 002°38'0 0.1
2017-Aug-14 12:00N 39°33' E 002°38'3 6.5
2017-Aug-14 11:30N 39°30' E 002°37'713.7
2017-Aug-14 11:00N 39°26' E 002°31'611.8
2017-Aug-14 10:30N 39°27' E 002°23'812.2
2017-Aug-14 09:52N 39°33' E 002°16'411.2
2017-Aug-14 09:30N 39°37' E 002°16'713.7
2017-Aug-14 08:58N 39°43' E 002°21'715.2
2017-Aug-14 08:30N 39°49' E 002°26'815.6
2017-Aug-14 08:00N 39°56' E 002°31'815.4
2017-Aug-14 07:30N 40°02' E 002°36'815.3
2017-Aug-14 07:00N 40°09' E 002°41'815.3
2017-Aug-14 06:30N 40°16' E 002°46'715.0
2017-Aug-14 06:00N 40°22' E 002°52'714.9
2017-Aug-14 05:30N 40°28' E 002°57'714.8
2017-Aug-14 05:00N 40°34' E 003°02'814.9
2017-Aug-14 04:30N 40°41' E 003°07'715.2
2017-Aug-14 04:00N 40°48' E 003°12'815.0
2017-Aug-14 03:30N 40°54' E 003°16'714.8
2017-Aug-14 03:00N 41°00' E 003°22'5215.3
2017-Aug-13 23:34N 41°45' E 003°58'115.7
2017-Aug-13 23:30N 41°46' E 003°59'1115.0
2017-Aug-13 22:45N 41°56' E 004°06'415.3
2017-Aug-13 22:30N 41°59' E 004°09'1015.4
2017-Aug-13 21:51N 42°07' E 004°17'615.4
2017-Aug-13 21:29N 42°12' E 004°20'815.5
2017-Aug-13 20:58N 42°19' E 004°26'715.7
2017-Aug-13 20:30N 42°25' E 004°31'816.0
2017-Aug-13 20:00N 42°32' E 004°37'816.0
2017-Aug-13 19:30N 42°39' E 004°42'816.3
2017-Aug-13 19:00N 42°46' E 004°48'816.1
2017-Aug-13 18:30N 42°53' E 004°54'816.0
2017-Aug-13 18:00N 42°60' E 004°60'816.0
2017-Aug-13 17:30N 43°06' E 005°06'816.4
2017-Aug-13 17:01N 43°13' E 005°11'814.9
2017-Aug-13 16:30N 43°20' E 005°17'2 0.2
2017-Aug-13 05:54N 43°21' E 005°19'3 6.8
2017-Aug-13 05:29N 43°19' E 005°17'7513.0
2017-Aug-12 23:42N 43°11' E 006°60'316.5
2017-Aug-12 23:30N 43°12' E 007°03'816.3
2017-Aug-12 23:00N 43°17' E 007°13'  

Dump ship's entire track history